Terminal Aerodrome Forecast
Issued by NWS Billings, MT

Home | Current Version | Previous Version | Text Only | Print | Product List | Glossary Off
Versions: 1 2 3 4 5 6 7 8 9 10 11 12 13 14 15 16 17 18 19 20 21 22 23 24 25 26

000
FTUS45 KBYZ 021121
TAFMLS
TAF
KMLS 021121Z 0212/0312 29010KT P6SM FEW120
     FM021700 33015G20KT 5SM FU FEW050
     FM030000 03005KT P6SM FEW050=

USA.gov is the U.S. government's official web portal to all federal, state and local government web resources and services.